EZY271 LEBB-LEIB
Flight info
| Callsign | EZY271 |
|---|---|
| Flight time | 1h 2m |
| Altitude | 33000 |
| Route | PPN DCT EXEMU DCT CMA DCT DISVU/N0449F320 M176 RETBA M871 LASPO Z224 VARUT |
| Aircraft | A320/M-SDE3FGHIRWY/LB1 |
Departure
| Time | 2026-05-07 19:55 |
|---|---|
| Airport | Bilbao Airport (LEBB) |
Arrival
| Time | 2026-05-07 20:57 |
|---|---|
| Airport | Ibiza Airport (LEIB) |
| Time | Latitude | Longitude | Altitude | Speed | Heading |
|---|---|---|---|---|---|
| 2026-05-07 19:35 | 43.30464 | -2.90741 | 132 ft | 0 kts | 26° |
| 2026-05-07 19:45 | 43.30462 | -2.90743 | 132 ft | 2 kts | 26° |
| 2026-05-07 19:46 | 43.30447 | -2.90753 | 132 ft | 2 kts | 26° |
| 2026-05-07 19:46 | 43.30431 | -2.90764 | 132 ft | 2 kts | 26° |
| 2026-05-07 19:46 | 43.30415 | -2.90774 | 132 ft | 3 kts | 6° |
| 2026-05-07 19:46 | 43.30398 | -2.90772 | 132 ft | 3 kts | 330° |
| 2026-05-07 19:47 | 43.30386 | -2.90760 | 132 ft | 0 kts | 306° |
| 2026-05-07 19:49 | 43.30387 | -2.90761 | 132 ft | 1 kts | 306° |
| 2026-05-07 19:50 | 43.30409 | -2.90809 | 132 ft | 10 kts | 292° |
| 2026-05-07 19:50 | 43.30410 | -2.90932 | 132 ft | 13 kts | 257° |
| 2026-05-07 19:50 | 43.30345 | -2.91011 | 132 ft | 12 kts | 211° |
| 2026-05-07 19:50 | 43.30303 | -2.91084 | 132 ft | 10 kts | 283° |
| 2026-05-07 19:51 | 43.30329 | -2.91165 | 132 ft | 10 kts | 298° |
| 2026-05-07 19:51 | 43.30372 | -2.91276 | 132 ft | 16 kts | 295° |
| 2026-05-07 19:51 | 43.30430 | -2.91442 | 132 ft | 22 kts | 296° |
| 2026-05-07 19:51 | 43.30508 | -2.91651 | 132 ft | 26 kts | 298° |
| 2026-05-07 19:52 | 43.30591 | -2.91873 | 132 ft | 27 kts | 295° |
| 2026-05-07 19:52 | 43.30675 | -2.92107 | 132 ft | 28 kts | 296° |
| 2026-05-07 19:52 | 43.30761 | -2.92350 | 132 ft | 29 kts | 296° |
| 2026-05-07 19:52 | 43.30796 | -2.92493 | 132 ft | 12 kts | 257° |
| 2026-05-07 19:53 | 43.30744 | -2.92512 | 132 ft | 7 kts | 165° |
| 2026-05-07 19:53 | 43.30699 | -2.92490 | 133 ft | 9 kts | 159° |
| 2026-05-07 19:53 | 43.30639 | -2.92458 | 134 ft | 8 kts | 158° |
| 2026-05-07 19:53 | 43.30602 | -2.92408 | 133 ft | 7 kts | 118° |
| 2026-05-07 19:54 | 43.30580 | -2.92331 | 132 ft | 17 kts | 112° |
| 2026-05-07 19:54 | 43.30404 | -2.91853 | 132 ft | 92 kts | 118° |
| 2026-05-07 19:54 | 43.30021 | -2.90821 | 128 ft | 149 kts | 117° |
| 2026-05-07 19:54 | 43.29527 | -2.89525 | 689 ft | 144 kts | 118° |
| 2026-05-07 19:55 | 43.29077 | -2.88277 | 1291 ft | 144 kts | 117° |
| 2026-05-07 19:55 | 43.28645 | -2.87061 | 1754 ft | 145 kts | 118° |
| 2026-05-07 19:55 | 43.28155 | -2.85734 | 1946 ft | 167 kts | 118° |
| 2026-05-07 19:55 | 43.27581 | -2.84185 | 2109 ft | 196 kts | 118° |
| 2026-05-07 19:56 | 43.26928 | -2.82415 | 2450 ft | 216 kts | 118° |
| 2026-05-07 19:56 | 43.26251 | -2.80567 | 3215 ft | 218 kts | 118° |
| 2026-05-07 19:56 | 43.25568 | -2.78704 | 3991 ft | 220 kts | 119° |
| 2026-05-07 19:56 | 43.24881 | -2.76815 | 4768 ft | 222 kts | 116° |
| 2026-05-07 19:57 | 43.24573 | -2.74727 | 5492 ft | 230 kts | 88° |
| 2026-05-07 19:57 | 43.25036 | -2.72639 | 6210 ft | 237 kts | 59° |
| 2026-05-07 19:57 | 43.26179 | -2.70949 | 6951 ft | 241 kts | 43° |
| 2026-05-07 19:57 | 43.27413 | -2.69436 | 7666 ft | 243 kts | 43° |
| 2026-05-07 19:58 | 43.28628 | -2.67952 | 8378 ft | 245 kts | 43° |
| 2026-05-07 19:58 | 43.29713 | -2.66213 | 9078 ft | 246 kts | 61° |
| 2026-05-07 19:58 | 43.30308 | -2.63945 | 9415 ft | 264 kts | 86° |
| 2026-05-07 19:58 | 43.30391 | -2.61333 | 9774 ft | 283 kts | 90° |
| 2026-05-07 19:59 | 43.30439 | -2.58556 | 10168 ft | 302 kts | 90° |
| 2026-05-07 19:59 | 43.30481 | -2.55562 | 10390 ft | 326 kts | 90° |
| 2026-05-07 19:59 | 43.30528 | -2.52359 | 10692 ft | 343 kts | 90° |
| 2026-05-07 19:59 | 43.30585 | -2.49047 | 11317 ft | 350 kts | 90° |
| 2026-05-07 20:00 | 43.30647 | -2.45685 | 12009 ft | 354 kts | 90° |
| 2026-05-07 20:00 | 43.30708 | -2.42284 | 12682 ft | 359 kts | 90° |
| 2026-05-07 20:00 | 43.30770 | -2.38836 | 13369 ft | 363 kts | 90° |
| 2026-05-07 20:00 | 43.30817 | -2.35348 | 14010 ft | 367 kts | 93° |
| 2026-05-07 20:01 | 43.30502 | -2.31862 | 14580 ft | 370 kts | 105° |
| 2026-05-07 20:01 | 43.29652 | -2.28536 | 15153 ft | 372 kts | 117° |
| 2026-05-07 20:01 | 43.28292 | -2.25512 | 15720 ft | 374 kts | 130° |
| 2026-05-07 20:01 | 43.26484 | -2.22943 | 16286 ft | 376 kts | 142° |
| 2026-05-07 20:02 | 43.24379 | -2.20793 | 16871 ft | 379 kts | 146° |
| 2026-05-07 20:02 | 43.22234 | -2.18653 | 17460 ft | 383 kts | 146° |
| 2026-05-07 20:02 | 43.20074 | -2.16492 | 18038 ft | 387 kts | 146° |
| 2026-05-07 20:02 | 43.17887 | -2.14301 | 18557 ft | 391 kts | 146° |
| 2026-05-07 20:03 | 43.15683 | -2.12092 | 19090 ft | 394 kts | 146° |
| 2026-05-07 20:03 | 43.13464 | -2.09869 | 19608 ft | 396 kts | 146° |
| 2026-05-07 20:03 | 43.11230 | -2.07633 | 20144 ft | 399 kts | 146° |
| 2026-05-07 20:03 | 43.08987 | -2.05396 | 20695 ft | 401 kts | 146° |
| 2026-05-07 20:04 | 43.06725 | -2.03141 | 21239 ft | 403 kts | 146° |
| 2026-05-07 20:04 | 43.04448 | -2.00878 | 21780 ft | 406 kts | 147° |
| 2026-05-07 20:04 | 43.02156 | -1.98607 | 22289 ft | 408 kts | 147° |
| 2026-05-07 20:04 | 42.99860 | -1.96332 | 22782 ft | 409 kts | 147° |
| 2026-05-07 20:05 | 42.97578 | -1.94073 | 23253 ft | 411 kts | 147° |
| 2026-05-07 20:05 | 42.95253 | -1.91773 | 23682 ft | 414 kts | 147° |
| 2026-05-07 20:05 | 42.92883 | -1.89430 | 24065 ft | 416 kts | 147° |
| 2026-05-07 20:05 | 42.90567 | -1.87140 | 24423 ft | 419 kts | 147° |
| 2026-05-07 20:06 | 42.88200 | -1.84801 | 24758 ft | 421 kts | 147° |
| 2026-05-07 20:06 | 42.85818 | -1.82448 | 25092 ft | 424 kts | 147° |
| 2026-05-07 20:06 | 42.83423 | -1.80086 | 25436 ft | 426 kts | 147° |
| 2026-05-07 20:06 | 42.81019 | -1.77721 | 25765 ft | 428 kts | 147° |
| 2026-05-07 20:07 | 42.78596 | -1.75340 | 26100 ft | 431 kts | 147° |
| 2026-05-07 20:07 | 42.76144 | -1.72981 | 26430 ft | 432 kts | 150° |
| 2026-05-07 20:07 | 42.73503 | -1.71052 | 26733 ft | 431 kts | 159° |
| 2026-05-07 20:07 | 42.70685 | -1.69714 | 27041 ft | 429 kts | 168° |
| 2026-05-07 20:08 | 42.67754 | -1.68945 | 27353 ft | 430 kts | 173° |
| 2026-05-07 20:08 | 42.64792 | -1.68297 | 27654 ft | 432 kts | 173° |
| 2026-05-07 20:08 | 42.61815 | -1.67637 | 27950 ft | 434 kts | 173° |
| 2026-05-07 20:08 | 42.58823 | -1.66970 | 28231 ft | 437 kts | 173° |
| 2026-05-07 20:09 | 42.55824 | -1.66300 | 28508 ft | 439 kts | 173° |
| 2026-05-07 20:09 | 42.52802 | -1.65627 | 28780 ft | 441 kts | 173° |
| 2026-05-07 20:09 | 42.50794 | -1.65180 | 28949 ft | 442 kts | 173° |
| 2026-05-07 20:10 | 42.44687 | -1.63829 | 29445 ft | 446 kts | 173° |
| 2026-05-07 20:10 | 42.41620 | -1.63154 | 29665 ft | 448 kts | 173° |
| 2026-05-07 20:10 | 42.38532 | -1.62475 | 29891 ft | 450 kts | 173° |
| 2026-05-07 20:10 | 42.34435 | -1.61573 | 30255 ft | 450 kts | 173° |
| 2026-05-07 20:11 | 42.32344 | -1.61110 | 30411 ft | 451 kts | 174° |
| 2026-05-07 20:11 | 42.29251 | -1.60426 | 30627 ft | 452 kts | 174° |
| 2026-05-07 20:11 | 42.25127 | -1.59519 | 30920 ft | 454 kts | 174° |
| 2026-05-07 20:11 | 42.23027 | -1.59062 | 31070 ft | 454 kts | 174° |
| 2026-05-07 20:12 | 42.19898 | -1.58384 | 31279 ft | 456 kts | 174° |
| 2026-05-07 20:12 | 42.16761 | -1.57704 | 31497 ft | 457 kts | 174° |
| 2026-05-07 20:12 | 42.13616 | -1.57017 | 31719 ft | 458 kts | 174° |
| 2026-05-07 20:12 | 42.10505 | -1.56335 | 31941 ft | 459 kts | 174° |
| 2026-05-07 20:13 | 42.07310 | -1.55635 | 32166 ft | 461 kts | 175° |
| 2026-05-07 20:13 | 42.04184 | -1.54950 | 32404 ft | 462 kts | 175° |
| 2026-05-07 20:13 | 42.01008 | -1.54256 | 32620 ft | 463 kts | 175° |
| 2026-05-07 20:13 | 41.97825 | -1.53561 | 32840 ft | 464 kts | 175° |
| 2026-05-07 20:14 | 41.94634 | -1.52864 | 32966 ft | 465 kts | 175° |
| 2026-05-07 20:14 | 41.88262 | -1.51479 | 32982 ft | 464 kts | 175° |
| 2026-05-07 20:15 | 41.81878 | -1.50098 | 32983 ft | 465 kts | 175° |
| 2026-05-07 20:15 | 41.75495 | -1.48717 | 32981 ft | 465 kts | 176° |
| 2026-05-07 20:16 | 41.69090 | -1.47334 | 32986 ft | 466 kts | 175° |
| 2026-05-07 20:16 | 41.62682 | -1.45953 | 32977 ft | 467 kts | 176° |
| 2026-05-07 20:17 | 41.56259 | -1.44569 | 32975 ft | 467 kts | 176° |
| 2026-05-07 20:17 | 41.49828 | -1.43193 | 32974 ft | 468 kts | 176° |
| 2026-05-07 20:18 | 41.43399 | -1.41821 | 32975 ft | 469 kts | 176° |
| 2026-05-07 20:18 | 41.36997 | -1.40450 | 32976 ft | 469 kts | 176° |
| 2026-05-07 20:19 | 41.30554 | -1.39075 | 32972 ft | 469 kts | 176° |
| 2026-05-07 20:19 | 41.24050 | -1.37684 | 32972 ft | 470 kts | 176° |
| 2026-05-07 20:20 | 41.17632 | -1.36321 | 32973 ft | 471 kts | 176° |
| 2026-05-07 20:20 | 41.11150 | -1.34951 | 32979 ft | 472 kts | 177° |
| 2026-05-07 20:21 | 41.04665 | -1.33589 | 32984 ft | 472 kts | 177° |
| 2026-05-07 20:21 | 40.98163 | -1.32215 | 32985 ft | 473 kts | 177° |
| 2026-05-07 20:22 | 40.91663 | -1.30836 | 32997 ft | 474 kts | 177° |
| 2026-05-07 20:22 | 40.85143 | -1.29450 | 32990 ft | 475 kts | 176° |
| 2026-05-07 20:23 | 40.78633 | -1.27758 | 32989 ft | 478 kts | 174° |
| 2026-05-07 20:23 | 40.72142 | -1.25864 | 32993 ft | 479 kts | 174° |
| 2026-05-07 20:24 | 40.65614 | -1.24013 | 32990 ft | 479 kts | 175° |
| 2026-05-07 20:24 | 40.59078 | -1.22242 | 33003 ft | 480 kts | 175° |
| 2026-05-07 20:25 | 40.52564 | -1.20500 | 32999 ft | 481 kts | 175° |
| 2026-05-07 20:25 | 40.45964 | -1.18725 | 33002 ft | 481 kts | 175° |
| 2026-05-07 20:26 | 40.39441 | -1.16968 | 33002 ft | 481 kts | 175° |
| 2026-05-07 20:26 | 40.32871 | -1.15198 | 33000 ft | 482 kts | 176° |
| 2026-05-07 20:27 | 40.26308 | -1.13429 | 33000 ft | 482 kts | 176° |
| 2026-05-07 20:27 | 40.19733 | -1.11660 | 32999 ft | 482 kts | 176° |
| 2026-05-07 20:28 | 40.13162 | -1.09907 | 33001 ft | 482 kts | 176° |
| 2026-05-07 20:28 | 40.06576 | -1.08150 | 32988 ft | 483 kts | 176° |
| 2026-05-07 20:29 | 39.99998 | -1.06394 | 32973 ft | 483 kts | 177° |
| 2026-05-07 20:29 | 39.93416 | -1.04646 | 32967 ft | 483 kts | 177° |
| 2026-05-07 20:30 | 39.86825 | -1.02897 | 32958 ft | 483 kts | 177° |
| 2026-05-07 20:30 | 39.80244 | -1.01155 | 32951 ft | 483 kts | 177° |
| 2026-05-07 20:31 | 39.73653 | -0.99401 | 32948 ft | 483 kts | 177° |
| 2026-05-07 20:31 | 39.67073 | -0.97634 | 32953 ft | 484 kts | 176° |
| 2026-05-07 20:32 | 39.60492 | -0.95698 | 32961 ft | 485 kts | 175° |
| 2026-05-07 20:32 | 39.53919 | -0.93703 | 32970 ft | 485 kts | 175° |
| 2026-05-07 20:32 | 39.50670 | -0.92399 | 32978 ft | 496 kts | 166° |
| 2026-05-07 20:33 | 39.47542 | -0.90417 | 32982 ft | 506 kts | 155° |
| 2026-05-07 20:33 | 39.44648 | -0.87750 | 32986 ft | 515 kts | 144° |
| 2026-05-07 20:33 | 39.42096 | -0.84454 | 32983 ft | 523 kts | 134° |
| 2026-05-07 20:34 | 39.38069 | -0.76573 | 32980 ft | 529 kts | 122° |
| 2026-05-07 20:34 | 39.34422 | -0.68301 | 32981 ft | 530 kts | 122° |
| 2026-05-07 20:34 | 39.32613 | -0.64224 | 32837 ft | 530 kts | 122° |
| 2026-05-07 20:35 | 39.30775 | -0.60100 | 32571 ft | 530 kts | 122° |
| 2026-05-07 20:35 | 39.29013 | -0.55919 | 32310 ft | 532 kts | 116° |
| 2026-05-07 20:35 | 39.27627 | -0.51492 | 31546 ft | 534 kts | 108° |
| 2026-05-07 20:35 | 39.26618 | -0.46838 | 30430 ft | 541 kts | 104° |
| 2026-05-07 20:36 | 39.25666 | -0.42147 | 29611 ft | 538 kts | 104° |
| 2026-05-07 20:36 | 39.24728 | -0.37529 | 28955 ft | 530 kts | 104° |
| 2026-05-07 20:36 | 39.23787 | -0.32959 | 28267 ft | 524 kts | 104° |
| 2026-05-07 20:36 | 39.22846 | -0.28451 | 27589 ft | 517 kts | 105° |
| 2026-05-07 20:37 | 39.21906 | -0.24003 | 26914 ft | 511 kts | 105° |
| 2026-05-07 20:37 | 39.20977 | -0.19622 | 26249 ft | 504 kts | 105° |
| 2026-05-07 20:37 | 39.20060 | -0.15287 | 25585 ft | 498 kts | 105° |
| 2026-05-07 20:37 | 39.19158 | -0.11016 | 25076 ft | 489 kts | 106° |
| 2026-05-07 20:38 | 39.18272 | -0.06830 | 24507 ft | 482 kts | 106° |
| 2026-05-07 20:38 | 39.17394 | -0.02691 | 23951 ft | 475 kts | 106° |
| 2026-05-07 20:38 | 39.16546 | 0.01295 | 23222 ft | 462 kts | 107° |
| 2026-05-07 20:38 | 39.15707 | 0.05235 | 22242 ft | 452 kts | 107° |
| 2026-05-07 20:39 | 39.14878 | 0.09117 | 21773 ft | 444 kts | 107° |
| 2026-05-07 20:39 | 39.14069 | 0.12903 | 21391 ft | 434 kts | 107° |
| 2026-05-07 20:39 | 39.13270 | 0.16632 | 20866 ft | 429 kts | 107° |
| 2026-05-07 20:39 | 39.12478 | 0.20316 | 20382 ft | 424 kts | 107° |
| 2026-05-07 20:40 | 39.11698 | 0.23950 | 19875 ft | 420 kts | 107° |
| 2026-05-07 20:40 | 39.10921 | 0.27560 | 19370 ft | 416 kts | 107° |
| 2026-05-07 20:40 | 39.10149 | 0.31139 | 18851 ft | 413 kts | 107° |
| 2026-05-07 20:40 | 39.09380 | 0.34695 | 18334 ft | 411 kts | 107° |
| 2026-05-07 20:41 | 39.08623 | 0.38182 | 17764 ft | 408 kts | 107° |
| 2026-05-07 20:41 | 39.07853 | 0.41724 | 17222 ft | 405 kts | 107° |
| 2026-05-07 20:41 | 39.07107 | 0.45151 | 16695 ft | 401 kts | 106° |
| 2026-05-07 20:41 | 39.06358 | 0.48598 | 16158 ft | 399 kts | 106° |
| 2026-05-07 20:42 | 39.05614 | 0.52023 | 15609 ft | 396 kts | 106° |
| 2026-05-07 20:42 | 39.04874 | 0.55431 | 15073 ft | 394 kts | 106° |
| 2026-05-07 20:42 | 39.04137 | 0.58820 | 14527 ft | 392 kts | 106° |
| 2026-05-07 20:42 | 39.03399 | 0.62193 | 13980 ft | 391 kts | 105° |
| 2026-05-07 20:43 | 39.02663 | 0.65546 | 13388 ft | 389 kts | 106° |
| 2026-05-07 20:43 | 39.01706 | 0.68767 | 12994 ft | 381 kts | 117° |
| 2026-05-07 20:43 | 39.00484 | 0.71718 | 12858 ft | 367 kts | 118° |
| 2026-05-07 20:43 | 38.99317 | 0.74565 | 12727 ft | 353 kts | 118° |
| 2026-05-07 20:44 | 38.98202 | 0.77317 | 12598 ft | 341 kts | 117° |
| 2026-05-07 20:44 | 38.97130 | 0.79968 | 12451 ft | 329 kts | 117° |
| 2026-05-07 20:44 | 38.96089 | 0.82537 | 12335 ft | 319 kts | 117° |
| 2026-05-07 20:44 | 38.95080 | 0.85017 | 12213 ft | 309 kts | 118° |
| 2026-05-07 20:45 | 38.94099 | 0.87421 | 12065 ft | 298 kts | 118° |
| 2026-05-07 20:45 | 38.93164 | 0.89705 | 11839 ft | 283 kts | 118° |
| 2026-05-07 20:45 | 38.92256 | 0.91914 | 11398 ft | 277 kts | 118° |
| 2026-05-07 20:45 | 38.91360 | 0.94092 | 10907 ft | 274 kts | 118° |
| 2026-05-07 20:46 | 38.90468 | 0.96234 | 10411 ft | 271 kts | 122° |
| 2026-05-07 20:46 | 38.89294 | 0.98044 | 9956 ft | 265 kts | 140° |
| 2026-05-07 20:46 | 38.87754 | 0.99318 | 9617 ft | 259 kts | 153° |
| 2026-05-07 20:46 | 38.86161 | 1.00401 | 9322 ft | 259 kts | 152° |
| 2026-05-07 20:47 | 38.84562 | 1.01372 | 9052 ft | 256 kts | 166° |
| 2026-05-07 20:47 | 38.82828 | 1.01370 | 8792 ft | 249 kts | 199° |
| 2026-05-07 20:47 | 38.81390 | 1.00211 | 8525 ft | 245 kts | 232° |
| 2026-05-07 20:47 | 38.80502 | 0.98359 | 8262 ft | 246 kts | 244° |
| 2026-05-07 20:48 | 38.79694 | 0.96420 | 8001 ft | 247 kts | 242° |
| 2026-05-07 20:48 | 38.78655 | 0.94664 | 7734 ft | 249 kts | 224° |
| 2026-05-07 20:48 | 38.77383 | 0.93158 | 7473 ft | 250 kts | 224° |
| 2026-05-07 20:48 | 38.76063 | 0.91709 | 7216 ft | 250 kts | 212° |
| 2026-05-07 20:49 | 38.74451 | 0.90944 | 6964 ft | 248 kts | 185° |
| 2026-05-07 20:49 | 38.72754 | 0.91141 | 6792 ft | 246 kts | 159° |
| 2026-05-07 20:49 | 38.71283 | 0.92198 | 6635 ft | 242 kts | 134° |
| 2026-05-07 20:49 | 38.70355 | 0.93929 | 6479 ft | 234 kts | 104° |
| 2026-05-07 20:50 | 38.70235 | 0.95957 | 6187 ft | 228 kts | 73° |
| 2026-05-07 20:50 | 38.70862 | 0.97771 | 5888 ft | 223 kts | 58° |
| 2026-05-07 20:50 | 38.71620 | 0.99496 | 5624 ft | 221 kts | 59° |
| 2026-05-07 20:50 | 38.72365 | 1.01207 | 5357 ft | 220 kts | 60° |
| 2026-05-07 20:51 | 38.73082 | 1.02923 | 5120 ft | 218 kts | 60° |
| 2026-05-07 20:51 | 38.73788 | 1.04647 | 4878 ft | 217 kts | 61° |
| 2026-05-07 20:51 | 38.74474 | 1.06357 | 4631 ft | 216 kts | 62° |
| 2026-05-07 20:51 | 38.75138 | 1.08081 | 4381 ft | 215 kts | 61° |
| 2026-05-07 20:52 | 38.75826 | 1.09770 | 4141 ft | 213 kts | 60° |
| 2026-05-07 20:52 | 38.76506 | 1.11404 | 3907 ft | 208 kts | 60° |
| 2026-05-07 20:52 | 38.77172 | 1.12998 | 3667 ft | 196 kts | 60° |
| 2026-05-07 20:52 | 38.77795 | 1.14491 | 3458 ft | 186 kts | 60° |
| 2026-05-07 20:53 | 38.78248 | 1.15580 | 3845 ft | 154 kts | 59° |
| 2026-05-07 20:53 | 38.78768 | 1.16795 | 4328 ft | 172 kts | 57° |
| 2026-05-07 20:53 | 38.79403 | 1.18165 | 3868 ft | 186 kts | 61° |
| 2026-05-07 20:53 | 38.80008 | 1.19723 | 3371 ft | 204 kts | 61° |
| 2026-05-07 20:54 | 38.80681 | 1.21379 | 2673 ft | 218 kts | 59° |
| 2026-05-07 20:54 | 38.81517 | 1.23149 | 1800 ft | 239 kts | 57° |
| 2026-05-07 20:54 | 38.82368 | 1.24995 | 1325 ft | 240 kts | 64° |
| 2026-05-07 20:54 | 38.83014 | 1.26870 | 1327 ft | 221 kts | 64° |
| 2026-05-07 20:55 | 38.83662 | 1.28560 | 1269 ft | 201 kts | 61° |
| 2026-05-07 20:55 | 38.84277 | 1.30061 | 1076 ft | 181 kts | 61° |
| 2026-05-07 20:55 | 38.84841 | 1.31420 | 849 ft | 162 kts | 60° |
| 2026-05-07 20:55 | 38.85344 | 1.32632 | 641 ft | 146 kts | 59° |
| 2026-05-07 20:56 | 38.85806 | 1.33745 | 436 ft | 138 kts | 59° |
| 2026-05-07 20:56 | 38.86249 | 1.34814 | 258 ft | 135 kts | 58° |
| 2026-05-07 20:56 | 38.86681 | 1.35875 | 92 ft | 133 kts | 59° |
| 2026-05-07 20:56 | 38.87107 | 1.36827 | 30 ft | 102 kts | 57° |
| 2026-05-07 20:57 | 38.87359 | 1.37430 | 32 ft | 52 kts | 59° |
| 2026-05-07 20:57 | 38.87469 | 1.37718 | 33 ft | 20 kts | 54° |
| 2026-05-07 20:57 | 38.87569 | 1.37848 | 33 ft | 21 kts | 42° |
| 2026-05-07 20:57 | 38.87648 | 1.37901 | 34 ft | 0 kts | 29° |
| 2026-05-07 20:58 | 38.87657 | 1.37906 | 35 ft | 6 kts | 20° |
| 2026-05-07 20:58 | 38.87683 | 1.37891 | 39 ft | 3 kts | 316° |
| 2026-05-07 20:59 | 38.87678 | 1.37807 | 40 ft | 17 kts | 234° |
| 2026-05-07 20:59 | 38.87619 | 1.37679 | 43 ft | 16 kts | 242° |
| 2026-05-07 20:59 | 38.87587 | 1.37564 | 44 ft | 11 kts | 287° |
| 2026-05-07 20:59 | 38.87639 | 1.37513 | 47 ft | 10 kts | 333° |
| 2026-05-07 21:00 | 38.87694 | 1.37467 | 49 ft | 9 kts | 304° |
| 2026-05-07 21:00 | 38.87688 | 1.37402 | 50 ft | 7 kts | 243° |
| 2026-05-07 21:00 | 38.87655 | 1.37321 | 50 ft | 19 kts | 240° |
| 2026-05-07 21:00 | 38.87581 | 1.37146 | 45 ft | 23 kts | 244° |
| 2026-05-07 21:01 | 38.87544 | 1.37033 | 47 ft | 8 kts | 285° |
| 2026-05-07 21:01 | 38.87574 | 1.37008 | 48 ft | 3 kts | 332° |
| 2026-05-07 21:01 | 38.87583 | 1.37002 | 49 ft | 2 kts | 332° |
| 2026-05-07 21:01 | 38.87588 | 1.36999 | 49 ft | 0 kts | 332° |
| 2026-05-07 21:02 | 38.87589 | 1.37000 | 49 ft | 0 kts | 345° |
| 2026-05-07 21:02 | 38.87590 | 1.36999 | 49 ft | 1 kts | 339° |
| 2026-05-07 21:02 | 38.87596 | 1.36994 | 49 ft | 1 kts | 330° |